sensor_id;sensor_type;location;lat;lon;timestamp;temperature;humidity
20750;DHT22;10535;50.664;4.564;2023-11-19T00:00:40;14.20;99.90
20750;DHT22;10535;50.664;4.564;2023-11-19T00:03:06;14.20;99.90
20750;DHT22;10535;50.664;4.564;2023-11-19T00:05:32;14.40;99.90
20750;DHT22;10535;50.664;4.564;2023-11-19T00:07:57;14.40;99.90
20750;DHT22;10535;50.664;4.564;2023-11-19T00:10:23;14.30;99.90
20750;DHT22;10535;50.664;4.564;2023-11-19T00:12:49;14.30;99.90
20750;DHT22;10535;50.664;4.564;2023-11-19T00:15:16;14.40;99.90
20750;DHT22;10535;50.664;4.564;2023-11-19T00:17:45;14.40;99.90
20750;DHT22;10535;50.664;4.564;2023-11-19T00:20:18;14.50;99.90
20750;DHT22;10535;50.664;4.564;2023-11-19T00:22:44;14.40;99.90
20750;DHT22;10535;50.664;4.564;2023-11-19T00:25:13;14.40;99.90
20750;DHT22;10535;50.664;4.564;2023-11-19T00:27:39;14.40;99.90
20750;DHT22;10535;50.664;4.564;2023-11-19T00:30:07;14.30;99.90
20750;DHT22;10535;50.664;4.564;2023-11-19T00:32:33;14.30;99.90
20750;DHT22;10535;50.664;4.564;2023-11-19T00:34:59;14.20;99.90
20750;DHT22;10535;50.664;4.564;2023-11-19T00:37:25;14.10;99.90
20750;DHT22;10535;50.664;4.564;2023-11-19T00:39:50;14.10;99.90
20750;DHT22;10535;50.664;4.564;2023-11-19T00:42:17;14.10;99.90
20750;DHT22;10535;50.664;4.564;2023-11-19T00:44:43;14.10;99.90
20750;DHT22;10535;50.664;4.564;2023-11-19T00:47:08;14.20;99.90
20750;DHT22;10535;50.664;4.564;2023-11-19T00:49:34;14.20;99.90
20750;DHT22;10535;50.664;4.564;2023-11-19T00:52:00;14.10;99.90
20750;DHT22;10535;50.664;4.564;2023-11-19T00:54:27;14.10;99.90
20750;DHT22;10535;50.664;4.564;2023-11-19T00:56:53;14.00;99.90
20750;DHT22;10535;50.664;4.564;2023-11-19T00:59:19;14.00;99.90
20750;DHT22;10535;50.664;4.564;2023-11-19T01:01:45;14.00;99.90
20750;DHT22;10535;50.664;4.564;2023-11-19T01:04:10;14.00;99.90
20750;DHT22;10535;50.664;4.564;2023-11-19T01:06:36;14.10;99.90
20750;DHT22;10535;50.664;4.564;2023-11-19T01:09:02;14.10;99.90
20750;DHT22;10535;50.664;4.564;2023-11-19T01:11:27;14.10;99.90
20750;DHT22;10535;50.664;4.564;2023-11-19T01:13:53;14.00;99.90
20750;DHT22;10535;50.664;4.564;2023-11-19T01:16:19;14.00;99.90
20750;DHT22;10535;50.664;4.564;2023-11-19T01:18:49;14.00;99.90
20750;DHT22;10535;50.664;4.564;2023-11-19T01:21:15;13.90;99.90
20750;DHT22;10535;50.664;4.564;2023-11-19T01:23:41;14.00;99.90
20750;DHT22;10535;50.664;4.564;2023-11-19T01:26:14;14.10;99.90
20750;DHT22;10535;50.664;4.564;2023-11-19T01:28:40;14.00;99.90
20750;DHT22;10535;50.664;4.564;2023-11-19T01:31:08;14.00;99.90
20750;DHT22;10535;50.664;4.564;2023-11-19T01:33:37;13.90;99.90
20750;DHT22;10535;50.664;4.564;2023-11-19T01:36:03;13.90;99.90
20750;DHT22;10535;50.664;4.564;2023-11-19T01:38:29;13.80;99.90
20750;DHT22;10535;50.664;4.564;2023-11-19T01:40:56;14.00;99.90
20750;DHT22;10535;50.664;4.564;2023-11-19T01:43:37;13.90;99.90
20750;DHT22;10535;50.664;4.564;2023-11-19T01:46:05;13.90;99.90
20750;DHT22;10535;50.664;4.564;2023-11-19T01:48:32;14.00;99.90
20750;DHT22;10535;50.664;4.564;2023-11-19T01:51:00;13.90;99.90
20750;DHT22;10535;50.664;4.564;2023-11-19T01:53:27;14.00;99.90
20750;DHT22;10535;50.664;4.564;2023-11-19T01:55:53;14.00;99.90
20750;DHT22;10535;50.664;4.564;2023-11-19T01:58:19;14.00;99.90
20750;DHT22;10535;50.664;4.564;2023-11-19T02:00:45;13.90;99.90
20750;DHT22;10535;50.664;4.564;2023-11-19T02:03:12;13.80;99.90
20750;DHT22;10535;50.664;4.564;2023-11-19T02:05:38;13.60;99.90
20750;DHT22;10535;50.664;4.564;2023-11-19T02:08:05;13.50;99.90
20750;DHT22;10535;50.664;4.564;2023-11-19T02:10:30;13.40;99.90
20750;DHT22;10535;50.664;4.564;2023-11-19T02:12:58;13.50;99.90
20750;DHT22;10535;50.664;4.564;2023-11-19T02:15:23;13.50;99.90
20750;DHT22;10535;50.664;4.564;2023-11-19T02:17:52;13.60;99.90
20750;DHT22;10535;50.664;4.564;2023-11-19T02:20:18;13.60;99.90
20750;DHT22;10535;50.664;4.564;2023-11-19T02:22:49;13.60;99.90
20750;DHT22;10535;50.664;4.564;2023-11-19T02:25:30;13.70;99.90
20750;DHT22;10535;50.664;4.564;2023-11-19T02:28:02;13.70;99.90
20750;DHT22;10535;50.664;4.564;2023-11-19T02:30:28;13.70;99.90
20750;DHT22;10535;50.664;4.564;2023-11-19T02:33:03;13.70;99.90
20750;DHT22;10535;50.664;4.564;2023-11-19T02:35:32;13.80;99.90
20750;DHT22;10535;50.664;4.564;2023-11-19T02:37:58;13.90;99.90
20750;DHT22;10535;50.664;4.564;2023-11-19T02:40:29;13.90;99.90
20750;DHT22;10535;50.664;4.564;2023-11-19T02:42:55;13.80;99.90
20750;DHT22;10535;50.664;4.564;2023-11-19T02:45:23;13.80;99.90
20750;DHT22;10535;50.664;4.564;2023-11-19T02:47:49;13.70;99.90
20750;DHT22;10535;50.664;4.564;2023-11-19T02:50:14;13.70;99.90
20750;DHT22;10535;50.664;4.564;2023-11-19T02:52:44;13.40;99.90
20750;DHT22;10535;50.664;4.564;2023-11-19T02:55:12;13.40;99.90
20750;DHT22;10535;50.664;4.564;2023-11-19T02:57:43;13.30;99.90
20750;DHT22;10535;50.664;4.564;2023-11-19T03:00:17;13.30;99.90
20750;DHT22;10535;50.664;4.564;2023-11-19T03:02:44;13.10;99.90
20750;DHT22;10535;50.664;4.564;2023-11-19T03:05:19;13.10;99.90
20750;DHT22;10535;50.664;4.564;2023-11-19T03:07:45;13.10;99.90
20750;DHT22;10535;50.664;4.564;2023-11-19T03:10:11;13.10;99.90
20750;DHT22;10535;50.664;4.564;2023-11-19T03:12:41;13.10;99.90
20750;DHT22;10535;50.664;4.564;2023-11-19T03:15:07;13.00;99.90
20750;DHT22;10535;50.664;4.564;2023-11-19T03:17:36;12.80;99.90
20750;DHT22;10535;50.664;4.564;2023-11-19T03:20:04;12.80;99.90
20750;DHT22;10535;50.664;4.564;2023-11-19T03:22:32;12.90;99.90
20750;DHT22;10535;50.664;4.564;2023-11-19T03:24:59;12.70;99.90
20750;DHT22;10535;50.664;4.564;2023-11-19T03:27:25;12.70;99.90
20750;DHT22;10535;50.664;4.564;2023-11-19T03:29:50;12.80;99.90
20750;DHT22;10535;50.664;4.564;2023-11-19T03:32:16;12.80;99.90
20750;DHT22;10535;50.664;4.564;2023-11-19T03:34:41;12.70;99.90
20750;DHT22;10535;50.664;4.564;2023-11-19T03:37:07;12.60;99.90
20750;DHT22;10535;50.664;4.564;2023-11-19T03:39:33;12.50;99.90
20750;DHT22;10535;50.664;4.564;2023-11-19T03:41:58;12.70;99.90
20750;DHT22;10535;50.664;4.564;2023-11-19T03:44:26;12.70;99.90
20750;DHT22;10535;50.664;4.564;2023-11-19T03:46:52;12.80;99.90
20750;DHT22;10535;50.664;4.564;2023-11-19T03:49:18;12.80;99.90
20750;DHT22;10535;50.664;4.564;2023-11-19T03:51:43;12.80;99.90
20750;DHT22;10535;50.664;4.564;2023-11-19T03:54:09;12.90;99.90
20750;DHT22;10535;50.664;4.564;2023-11-19T03:56:34;12.80;99.90
20750;DHT22;10535;50.664;4.564;2023-11-19T03:59:00;12.80;99.90
20750;DHT22;10535;50.664;4.564;2023-11-19T04:01:26;12.70;99.90
20750;DHT22;10535;50.664;4.564;2023-11-19T04:03:51;12.70;99.90
20750;DHT22;10535;50.664;4.564;2023-11-19T04:06:17;12.60;99.90
20750;DHT22;10535;50.664;4.564;2023-11-19T04:08:42;12.70;99.90
20750;DHT22;10535;50.664;4.564;2023-11-19T04:11:08;12.60;99.90
20750;DHT22;10535;50.664;4.564;2023-11-19T04:13:34;12.60;99.90
20750;DHT22;10535;50.664;4.564;2023-11-19T04:16:00;12.60;99.90
20750;DHT22;10535;50.664;4.564;2023-11-19T04:18:26;12.60;99.90
20750;DHT22;10535;50.664;4.564;2023-11-19T04:20:52;12.60;99.90
20750;DHT22;10535;50.664;4.564;2023-11-19T04:23:18;12.50;99.90
20750;DHT22;10535;50.664;4.564;2023-11-19T04:25:43;12.50;99.90
20750;DHT22;10535;50.664;4.564;2023-11-19T04:28:09;12.60;99.90
20750;DHT22;10535;50.664;4.564;2023-11-19T04:30:35;12.60;99.90
20750;DHT22;10535;50.664;4.564;2023-11-19T04:33:01;12.60;99.90
20750;DHT22;10535;50.664;4.564;2023-11-19T04:35:26;12.50;99.90
20750;DHT22;10535;50.664;4.564;2023-11-19T04:37:52;12.50;99.90
20750;DHT22;10535;50.664;4.564;2023-11-19T04:40:18;12.50;99.90
20750;DHT22;10535;50.664;4.564;2023-11-19T04:42:44;12.60;99.90
20750;DHT22;10535;50.664;4.564;2023-11-19T04:45:10;12.60;99.90
20750;DHT22;10535;50.664;4.564;2023-11-19T04:47:36;12.60;99.90
20750;DHT22;10535;50.664;4.564;2023-11-19T04:50:02;12.60;99.90
20750;DHT22;10535;50.664;4.564;2023-11-19T04:52:29;12.40;99.90
20750;DHT22;10535;50.664;4.564;2023-11-19T04:54:54;12.40;99.90
20750;DHT22;10535;50.664;4.564;2023-11-19T04:57:20;12.50;99.90
20750;DHT22;10535;50.664;4.564;2023-11-19T04:59:46;12.40;99.90
20750;DHT22;10535;50.664;4.564;2023-11-19T05:02:12;12.40;99.90
20750;DHT22;10535;50.664;4.564;2023-11-19T05:04:42;12.40;99.90
20750;DHT22;10535;50.664;4.564;2023-11-19T05:07:08;12.40;99.90
20750;DHT22;10535;50.664;4.564;2023-11-19T05:09:33;12.60;99.90
20750;DHT22;10535;50.664;4.564;2023-11-19T05:11:59;12.70;99.90
20750;DHT22;10535;50.664;4.564;2023-11-19T05:14:24;12.60;99.90
20750;DHT22;10535;50.664;4.564;2023-11-19T05:16:50;12.50;99.90
20750;DHT22;10535;50.664;4.564;2023-11-19T05:19:16;12.60;99.90
20750;DHT22;10535;50.664;4.564;2023-11-19T05:21:42;12.60;99.90
20750;DHT22;10535;50.664;4.564;2023-11-19T05:24:08;12.60;99.90
20750;DHT22;10535;50.664;4.564;2023-11-19T05:26:34;12.60;99.90
20750;DHT22;10535;50.664;4.564;2023-11-19T05:29:00;12.60;99.90
20750;DHT22;10535;50.664;4.564;2023-11-19T05:31:25;12.60;99.90
20750;DHT22;10535;50.664;4.564;2023-11-19T05:33:51;12.60;99.90
20750;DHT22;10535;50.664;4.564;2023-11-19T05:36:17;12.70;99.90
20750;DHT22;10535;50.664;4.564;2023-11-19T05:38:42;12.70;99.90
20750;DHT22;10535;50.664;4.564;2023-11-19T05:41:08;12.60;99.90
20750;DHT22;10535;50.664;4.564;2023-11-19T05:43:33;12.60;99.90
20750;DHT22;10535;50.664;4.564;2023-11-19T05:45:59;12.50;99.90
20750;DHT22;10535;50.664;4.564;2023-11-19T05:48:26;12.50;99.90
20750;DHT22;10535;50.664;4.564;2023-11-19T05:50:52;12.50;99.90
20750;DHT22;10535;50.664;4.564;2023-11-19T05:53:19;12.60;99.90
20750;DHT22;10535;50.664;4.564;2023-11-19T05:55:44;12.50;99.90
20750;DHT22;10535;50.664;4.564;2023-11-19T05:58:14;12.40;99.90
20750;DHT22;10535;50.664;4.564;2023-11-19T06:00:40;12.30;99.90
20750;DHT22;10535;50.664;4.564;2023-11-19T06:03:07;12.30;99.90
20750;DHT22;10535;50.664;4.564;2023-11-19T06:05:33;12.30;99.90
20750;DHT22;10535;50.664;4.564;2023-11-19T06:07:58;12.30;99.90
20750;DHT22;10535;50.664;4.564;2023-11-19T06:10:24;12.10;99.90
20750;DHT22;10535;50.664;4.564;2023-11-19T06:12:58;12.00;99.90
20750;DHT22;10535;50.664;4.564;2023-11-19T06:15:28;12.00;99.90
20750;DHT22;10535;50.664;4.564;2023-11-19T06:17:54;12.10;99.90
20750;DHT22;10535;50.664;4.564;2023-11-19T06:20:20;12.00;99.90
20750;DHT22;10535;50.664;4.564;2023-11-19T06:22:46;11.90;99.90
20750;DHT22;10535;50.664;4.564;2023-11-19T06:25:12;11.90;99.90
20750;DHT22;10535;50.664;4.564;2023-11-19T06:27:40;12.00;99.90
20750;DHT22;10535;50.664;4.564;2023-11-19T06:32:44;12.10;99.90
20750;DHT22;10535;50.664;4.564;2023-11-19T06:35:09;12.00;99.90
20750;DHT22;10535;50.664;4.564;2023-11-19T06:37:37;12.00;99.90
20750;DHT22;10535;50.664;4.564;2023-11-19T06:40:04;11.90;99.90
20750;DHT22;10535;50.664;4.564;2023-11-19T06:42:30;11.90;99.90
20750;DHT22;10535;50.664;4.564;2023-11-19T06:44:56;11.80;99.90
20750;DHT22;10535;50.664;4.564;2023-11-19T06:47:25;11.90;99.90
20750;DHT22;10535;50.664;4.564;2023-11-19T06:49:51;11.80;99.90
20750;DHT22;10535;50.664;4.564;2023-11-19T06:52:17;11.70;99.90
20750;DHT22;10535;50.664;4.564;2023-11-19T06:54:43;11.70;99.90
20750;DHT22;10535;50.664;4.564;2023-11-19T06:57:08;11.70;99.90
20750;DHT22;10535;50.664;4.564;2023-11-19T06:59:35;11.70;99.90
20750;DHT22;10535;50.664;4.564;2023-11-19T07:02:00;11.80;99.90
20750;DHT22;10535;50.664;4.564;2023-11-19T07:04:26;11.90;99.90
20750;DHT22;10535;50.664;4.564;2023-11-19T07:06:52;12.00;99.90
20750;DHT22;10535;50.664;4.564;2023-11-19T07:09:18;12.00;99.90
20750;DHT22;10535;50.664;4.564;2023-11-19T07:11:44;11.90;99.90
20750;DHT22;10535;50.664;4.564;2023-11-19T07:14:11;11.90;99.90
20750;DHT22;10535;50.664;4.564;2023-11-19T07:16:37;11.70;99.90
20750;DHT22;10535;50.664;4.564;2023-11-19T07:19:04;11.70;99.90
20750;DHT22;10535;50.664;4.564;2023-11-19T07:21:30;11.70;99.90
20750;DHT22;10535;50.664;4.564;2023-11-19T07:23:56;11.80;99.90
20750;DHT22;10535;50.664;4.564;2023-11-19T07:26:22;11.90;99.90
20750;DHT22;10535;50.664;4.564;2023-11-19T07:28:49;11.70;99.90
20750;DHT22;10535;50.664;4.564;2023-11-19T07:31:14;11.70;99.90
20750;DHT22;10535;50.664;4.564;2023-11-19T07:33:40;11.80;99.90
20750;DHT22;10535;50.664;4.564;2023-11-19T07:36:09;11.80;99.90
20750;DHT22;10535;50.664;4.564;2023-11-19T07:38:35;11.90;99.90
20750;DHT22;10535;50.664;4.564;2023-11-19T07:41:01;11.90;99.90
20750;DHT22;10535;50.664;4.564;2023-11-19T07:43:26;12.00;99.90
20750;DHT22;10535;50.664;4.564;2023-11-19T07:45:52;11.90;99.90
20750;DHT22;10535;50.664;4.564;2023-11-19T07:48:18;11.90;99.90
20750;DHT22;10535;50.664;4.564;2023-11-19T07:51:07;11.90;99.90
20750;DHT22;10535;50.664;4.564;2023-11-19T07:53:52;12.00;99.90
20750;DHT22;10535;50.664;4.564;2023-11-19T07:56:18;11.90;99.90
20750;DHT22;10535;50.664;4.564;2023-11-19T07:58:44;12.00;99.90
20750;DHT22;10535;50.664;4.564;2023-11-19T08:01:09;12.00;99.90
20750;DHT22;10535;50.664;4.564;2023-11-19T08:03:35;12.00;99.90
20750;DHT22;10535;50.664;4.564;2023-11-19T08:06:03;12.10;99.90
20750;DHT22;10535;50.664;4.564;2023-11-19T08:08:29;12.00;99.90
20750;DHT22;10535;50.664;4.564;2023-11-19T08:10:56;12.00;99.90
20750;DHT22;10535;50.664;4.564;2023-11-19T08:13:24;12.00;99.90
20750;DHT22;10535;50.664;4.564;2023-11-19T08:15:50;12.00;99.90
20750;DHT22;10535;50.664;4.564;2023-11-19T08:18:17;12.00;99.90
20750;DHT22;10535;50.664;4.564;2023-11-19T08:20:44;12.00;99.90
20750;DHT22;10535;50.664;4.564;2023-11-19T08:23:10;12.10;99.90
20750;DHT22;10535;50.664;4.564;2023-11-19T08:25:36;12.10;99.90
20750;DHT22;10535;50.664;4.564;2023-11-19T08:28:02;12.20;99.90
20750;DHT22;10535;50.664;4.564;2023-11-19T08:30:29;12.20;99.90
20750;DHT22;10535;50.664;4.564;2023-11-19T08:32:54;12.30;99.90
20750;DHT22;10535;50.664;4.564;2023-11-19T08:35:20;12.40;99.90
20750;DHT22;10535;50.664;4.564;2023-11-19T08:37:46;12.40;99.90
20750;DHT22;10535;50.664;4.564;2023-11-19T08:40:12;12.50;99.90
20750;DHT22;10535;50.664;4.564;2023-11-19T08:42:40;12.50;99.90
20750;DHT22;10535;50.664;4.564;2023-11-19T08:45:07;12.60;99.90
20750;DHT22;10535;50.664;4.564;2023-11-19T08:47:35;12.80;99.90
20750;DHT22;10535;50.664;4.564;2023-11-19T08:50:01;13.10;99.90
20750;DHT22;10535;50.664;4.564;2023-11-19T08:52:28;13.30;99.90
20750;DHT22;10535;50.664;4.564;2023-11-19T08:54:53;13.50;99.90
20750;DHT22;10535;50.664;4.564;2023-11-19T08:57:19;13.60;99.90
20750;DHT22;10535;50.664;4.564;2023-11-19T08:59:45;13.80;99.90
20750;DHT22;10535;50.664;4.564;2023-11-19T09:02:11;13.80;99.90
20750;DHT22;10535;50.664;4.564;2023-11-19T09:04:37;13.70;99.90
20750;DHT22;10535;50.664;4.564;2023-11-19T09:07:02;13.70;99.90
20750;DHT22;10535;50.664;4.564;2023-11-19T09:09:29;13.70;99.90
20750;DHT22;10535;50.664;4.564;2023-11-19T09:11:55;13.80;99.90
20750;DHT22;10535;50.664;4.564;2023-11-19T09:14:21;13.70;99.90
20750;DHT22;10535;50.664;4.564;2023-11-19T09:16:51;13.70;99.90
20750;DHT22;10535;50.664;4.564;2023-11-19T09:19:17;13.60;99.90
20750;DHT22;10535;50.664;4.564;2023-11-19T09:21:43;13.50;99.90
20750;DHT22;10535;50.664;4.564;2023-11-19T09:24:09;13.30;99.90
20750;DHT22;10535;50.664;4.564;2023-11-19T09:26:34;13.30;99.90
20750;DHT22;10535;50.664;4.564;2023-11-19T09:29:01;13.00;99.90
20750;DHT22;10535;50.664;4.564;2023-11-19T09:31:27;12.90;99.90
20750;DHT22;10535;50.664;4.564;2023-11-19T09:33:53;12.80;99.90
20750;DHT22;10535;50.664;4.564;2023-11-19T09:36:19;12.70;99.90
20750;DHT22;10535;50.664;4.564;2023-11-19T09:38:45;12.70;99.90
20750;DHT22;10535;50.664;4.564;2023-11-19T09:41:11;12.70;99.90
20750;DHT22;10535;50.664;4.564;2023-11-19T09:43:42;12.80;99.90
20750;DHT22;10535;50.664;4.564;2023-11-19T09:46:13;12.90;99.90
20750;DHT22;10535;50.664;4.564;2023-11-19T09:48:40;12.90;99.90
20750;DHT22;10535;50.664;4.564;2023-11-19T09:51:11;12.90;99.90
20750;DHT22;10535;50.664;4.564;2023-11-19T09:53:37;13.00;99.90
20750;DHT22;10535;50.664;4.564;2023-11-19T09:56:07;13.00;99.90
20750;DHT22;10535;50.664;4.564;2023-11-19T09:58:36;13.00;99.90
20750;DHT22;10535;50.664;4.564;2023-11-19T10:01:02;12.80;99.90
20750;DHT22;10535;50.664;4.564;2023-11-19T10:03:36;12.70;99.90
20750;DHT22;10535;50.664;4.564;2023-11-19T10:06:06;12.60;99.90
20750;DHT22;10535;50.664;4.564;2023-11-19T10:08:33;12.70;99.90
20750;DHT22;10535;50.664;4.564;2023-11-19T10:10:58;12.90;99.90
20750;DHT22;10535;50.664;4.564;2023-11-19T10:13:31;13.00;99.90
20750;DHT22;10535;50.664;4.564;2023-11-19T10:15:56;13.20;99.90
20750;DHT22;10535;50.664;4.564;2023-11-19T10:18:28;13.10;99.90
20750;DHT22;10535;50.664;4.564;2023-11-19T10:20:54;13.10;99.90
20750;DHT22;10535;50.664;4.564;2023-11-19T10:23:21;13.00;99.90
20750;DHT22;10535;50.664;4.564;2023-11-19T10:25:47;13.10;99.90
20750;DHT22;10535;50.664;4.564;2023-11-19T10:28:15;13.20;99.90
20750;DHT22;10535;50.664;4.564;2023-11-19T10:30:41;13.10;99.90
20750;DHT22;10535;50.664;4.564;2023-11-19T10:35:59;13.30;99.90
20750;DHT22;10535;50.664;4.564;2023-11-19T10:38:27;13.20;99.90
20750;DHT22;10535;50.664;4.564;2023-11-19T10:40:53;13.30;99.90
20750;DHT22;10535;50.664;4.564;2023-11-19T10:43:23;13.30;99.90
20750;DHT22;10535;50.664;4.564;2023-11-19T10:45:49;13.30;99.90
20750;DHT22;10535;50.664;4.564;2023-11-19T10:48:15;13.30;99.90
20750;DHT22;10535;50.664;4.564;2023-11-19T10:50:42;13.30;99.90
20750;DHT22;10535;50.664;4.564;2023-11-19T10:53:09;13.30;99.90
20750;DHT22;10535;50.664;4.564;2023-11-19T10:55:37;13.30;99.90
20750;DHT22;10535;50.664;4.564;2023-11-19T10:58:07;13.40;99.90
20750;DHT22;10535;50.664;4.564;2023-11-19T11:00:48;13.40;99.90
20750;DHT22;10535;50.664;4.564;2023-11-19T11:03:19;13.40;99.90
20750;DHT22;10535;50.664;4.564;2023-11-19T11:05:49;13.60;99.90
20750;DHT22;10535;50.664;4.564;2023-11-19T11:08:16;13.90;99.90
20750;DHT22;10535;50.664;4.564;2023-11-19T11:10:54;13.90;99.90
20750;DHT22;10535;50.664;4.564;2023-11-19T11:13:22;14.00;99.90
20750;DHT22;10535;50.664;4.564;2023-11-19T11:15:48;13.90;99.90
20750;DHT22;10535;50.664;4.564;2023-11-19T11:18:14;14.00;99.90
20750;DHT22;10535;50.664;4.564;2023-11-19T11:20:40;14.20;99.90
20750;DHT22;10535;50.664;4.564;2023-11-19T11:23:37;14.50;99.90
20750;DHT22;10535;50.664;4.564;2023-11-19T11:35:27;14.00;99.90
20750;DHT22;10535;50.664;4.564;2023-11-19T11:38:07;13.90;99.90
20750;DHT22;10535;50.664;4.564;2023-11-19T11:40:33;13.90;99.90
20750;DHT22;10535;50.664;4.564;2023-11-19T11:42:58;13.80;99.90
20750;DHT22;10535;50.664;4.564;2023-11-19T11:45:38;13.70;99.90
20750;DHT22;10535;50.664;4.564;2023-11-19T11:50:49;13.60;99.90
20750;DHT22;10535;50.664;4.564;2023-11-19T11:53:19;13.60;99.90
20750;DHT22;10535;50.664;4.564;2023-11-19T11:58:29;13.70;99.90
20750;DHT22;10535;50.664;4.564;2023-11-19T12:00:58;13.60;99.90
20750;DHT22;10535;50.664;4.564;2023-11-19T12:03:28;13.70;99.90
20750;DHT22;10535;50.664;4.564;2023-11-19T12:05:54;13.70;99.90
20750;DHT22;10535;50.664;4.564;2023-11-19T12:08:25;13.70;99.90
20750;DHT22;10535;50.664;4.564;2023-11-19T12:10:52;13.70;99.90
20750;DHT22;10535;50.664;4.564;2023-11-19T12:13:19;13.80;99.90
20750;DHT22;10535;50.664;4.564;2023-11-19T12:16:07;13.80;99.90
20750;DHT22;10535;50.664;4.564;2023-11-19T12:18:34;13.80;99.90
20750;DHT22;10535;50.664;4.564;2023-11-19T12:21:02;13.70;99.90
20750;DHT22;10535;50.664;4.564;2023-11-19T12:23:31;13.70;99.90
20750;DHT22;10535;50.664;4.564;2023-11-19T12:25:58;13.60;99.90
20750;DHT22;10535;50.664;4.564;2023-11-19T12:28:24;13.50;99.90
20750;DHT22;10535;50.664;4.564;2023-11-19T12:30:52;13.50;99.90
20750;DHT22;10535;50.664;4.564;2023-11-19T12:33:19;13.80;99.90
20750;DHT22;10535;50.664;4.564;2023-11-19T12:35:47;13.80;99.90
20750;DHT22;10535;50.664;4.564;2023-11-19T12:38:23;14.00;99.90
20750;DHT22;10535;50.664;4.564;2023-11-19T12:41:09;14.00;99.90
20750;DHT22;10535;50.664;4.564;2023-11-19T12:43:38;14.10;99.90
20750;DHT22;10535;50.664;4.564;2023-11-19T12:46:18;14.00;99.90
20750;DHT22;10535;50.664;4.564;2023-11-19T12:48:45;14.30;99.90
20750;DHT22;10535;50.664;4.564;2023-11-19T12:51:11;14.30;99.90
20750;DHT22;10535;50.664;4.564;2023-11-19T12:53:50;14.20;99.90
20750;DHT22;10535;50.664;4.564;2023-11-19T12:56:16;14.20;99.90
20750;DHT22;10535;50.664;4.564;2023-11-19T12:58:42;14.20;99.90
20750;DHT22;10535;50.664;4.564;2023-11-19T13:01:08;14.10;99.90
20750;DHT22;10535;50.664;4.564;2023-11-19T13:03:38;14.00;99.90
20750;DHT22;10535;50.664;4.564;2023-11-19T13:06:09;14.10;99.90
20750;DHT22;10535;50.664;4.564;2023-11-19T13:08:42;14.00;99.90
20750;DHT22;10535;50.664;4.564;2023-11-19T13:11:34;14.00;99.90
20750;DHT22;10535;50.664;4.564;2023-11-19T13:14:04;13.90;99.90
20750;DHT22;10535;50.664;4.564;2023-11-19T13:16:31;13.90;99.90
20750;DHT22;10535;50.664;4.564;2023-11-19T13:18:57;14.00;99.90
20750;DHT22;10535;50.664;4.564;2023-11-19T13:21:24;13.90;99.90
20750;DHT22;10535;50.664;4.564;2023-11-19T13:23:51;13.80;99.90
20750;DHT22;10535;50.664;4.564;2023-11-19T13:26:17;13.90;99.90
20750;DHT22;10535;50.664;4.564;2023-11-19T13:28:43;13.70;99.90
20750;DHT22;10535;50.664;4.564;2023-11-19T13:31:14;13.70;99.90
20750;DHT22;10535;50.664;4.564;2023-11-19T13:33:41;13.70;99.90
20750;DHT22;10535;50.664;4.564;2023-11-19T13:36:07;13.80;99.90
20750;DHT22;10535;50.664;4.564;2023-11-19T13:38:37;13.70;99.90
20750;DHT22;10535;50.664;4.564;2023-11-19T13:41:04;13.80;99.90
20750;DHT22;10535;50.664;4.564;2023-11-19T13:43:35;13.80;99.90
20750;DHT22;10535;50.664;4.564;2023-11-19T13:46:00;13.90;99.90
20750;DHT22;10535;50.664;4.564;2023-11-19T13:48:26;13.70;99.90
20750;DHT22;10535;50.664;4.564;2023-11-19T13:50:54;13.80;99.90
20750;DHT22;10535;50.664;4.564;2023-11-19T13:53:21;13.90;99.90
20750;DHT22;10535;50.664;4.564;2023-11-19T13:55:46;13.70;99.90
20750;DHT22;10535;50.664;4.564;2023-11-19T13:58:13;13.60;99.90
20750;DHT22;10535;50.664;4.564;2023-11-19T14:00:39;13.60;99.90
20750;DHT22;10535;50.664;4.564;2023-11-19T14:03:08;13.50;99.90
20750;DHT22;10535;50.664;4.564;2023-11-19T14:05:36;13.40;99.90
20750;DHT22;10535;50.664;4.564;2023-11-19T14:08:01;13.50;99.90
20750;DHT22;10535;50.664;4.564;2023-11-19T14:10:27;13.60;99.90
20750;DHT22;10535;50.664;4.564;2023-11-19T14:12:55;13.80;99.90
20750;DHT22;10535;50.664;4.564;2023-11-19T14:15:20;13.80;99.90
20750;DHT22;10535;50.664;4.564;2023-11-19T14:17:46;13.80;99.90
20750;DHT22;10535;50.664;4.564;2023-11-19T14:20:11;13.80;99.90
20750;DHT22;10535;50.664;4.564;2023-11-19T14:22:45;13.80;99.90
20750;DHT22;10535;50.664;4.564;2023-11-19T14:25:13;13.90;99.90
20750;DHT22;10535;50.664;4.564;2023-11-19T14:27:40;14.00;99.90
20750;DHT22;10535;50.664;4.564;2023-11-19T14:30:08;14.10;99.90
20750;DHT22;10535;50.664;4.564;2023-11-19T14:32:35;14.10;99.90
20750;DHT22;10535;50.664;4.564;2023-11-19T14:35:01;14.00;99.90
20750;DHT22;10535;50.664;4.564;2023-11-19T14:37:27;13.80;99.90
20750;DHT22;10535;50.664;4.564;2023-11-19T14:39:52;13.70;99.90
20750;DHT22;10535;50.664;4.564;2023-11-19T14:42:18;13.70;99.90
20750;DHT22;10535;50.664;4.564;2023-11-19T14:44:43;13.80;99.90
20750;DHT22;10535;50.664;4.564;2023-11-19T14:47:09;13.70;99.90
20750;DHT22;10535;50.664;4.564;2023-11-19T14:49:39;13.60;99.90
20750;DHT22;10535;50.664;4.564;2023-11-19T14:52:06;13.50;99.90
20750;DHT22;10535;50.664;4.564;2023-11-19T14:54:31;13.50;99.90
20750;DHT22;10535;50.664;4.564;2023-11-19T14:56:59;13.40;99.90
20750;DHT22;10535;50.664;4.564;2023-11-19T14:59:25;13.40;99.90
20750;DHT22;10535;50.664;4.564;2023-11-19T15:01:51;13.50;99.90
20750;DHT22;10535;50.664;4.564;2023-11-19T15:04:17;13.50;99.90
20750;DHT22;10535;50.664;4.564;2023-11-19T15:06:44;13.50;99.90
20750;DHT22;10535;50.664;4.564;2023-11-19T15:09:11;13.60;99.90
20750;DHT22;10535;50.664;4.564;2023-11-19T15:11:42;13.60;99.90
20750;DHT22;10535;50.664;4.564;2023-11-19T15:14:08;13.50;99.90
20750;DHT22;10535;50.664;4.564;2023-11-19T15:16:34;13.40;99.90
20750;DHT22;10535;50.664;4.564;2023-11-19T15:19:00;13.40;99.90
20750;DHT22;10535;50.664;4.564;2023-11-19T15:21:29;13.30;99.90
20750;DHT22;10535;50.664;4.564;2023-11-19T15:23:57;13.20;99.90
20750;DHT22;10535;50.664;4.564;2023-11-19T15:26:25;13.20;99.90
20750;DHT22;10535;50.664;4.564;2023-11-19T15:28:51;13.10;99.90
20750;DHT22;10535;50.664;4.564;2023-11-19T15:31:22;13.00;99.90
20750;DHT22;10535;50.664;4.564;2023-11-19T15:33:47;13.00;99.90
20750;DHT22;10535;50.664;4.564;2023-11-19T15:36:13;12.90;99.90
20750;DHT22;10535;50.664;4.564;2023-11-19T15:38:40;12.90;99.90
20750;DHT22;10535;50.664;4.564;2023-11-19T15:41:05;13.10;99.90
20750;DHT22;10535;50.664;4.564;2023-11-19T15:43:34;13.20;99.90
20750;DHT22;10535;50.664;4.564;2023-11-19T15:45:59;13.20;99.90
20750;DHT22;10535;50.664;4.564;2023-11-19T15:48:25;13.20;99.90
20750;DHT22;10535;50.664;4.564;2023-11-19T15:50:53;13.10;99.90